Corsair — WDI5217 — position and weather

sailwx.info

Track history (hours):
 
Tides and Currents Weather Stations Pressure Air Temp Water Temp Dewpoint Dewpoint Depression Visibility Wind Speed Wind Dir Waves Ship Positions

Corsair

Owner: MIFC SHIPPING LLC, Saint Ignace, MI. More information available from US FCC via Universal Licensing System and Coast Guard Vessel Documentation Center.

Last reported at 2018-Jul-21 16:50 UTC. Time now 2018-Jul-22 16:23 UTC.
Position N 45°52' W 084°44'.

Length 28 m; draft 2.1 m.

Type: Cargo ship. MMSI: 367706320.

Date/timePositionNaut miles runAvg speedWind from/ knotsBaromVisibWave heightAir tempDewpointWater temp
2018-Jul-21 16:50N 45°52' W 084°44'1 4.2
2018-Jul-21 16:30N 45°51' W 084°42'1 1.5
2018-Jul-21 16:01N 45°51' W 084°41'3 5.5
2018-Jul-21 15:29N 45°51' W 084°37'0 0.0
2018-Jul-21 15:00N 45°51' W 084°37'0 0.0
2018-Jul-21 14:30N 45°51' W 084°37'4 3.6
2018-Jul-21 13:30N 45°51' W 084°42'0 0.0
2018-Jul-21 13:00N 45°51' W 084°42'3 6.8
2018-Jul-21 12:31N 45°51' W 084°37'0 0.8
2018-Jul-21 12:00N 45°51' W 084°37'1 2.0
2018-Jul-21 11:30N 45°51' W 084°38'3 5.2
2018-Jul-21 11:00N 45°51' W 084°42'0 0.0
2018-Jul-21 10:30N 45°51' W 084°42'0 0.0
2018-Jul-21 10:00N 45°51' W 084°42'1 0.1
2018-Jul-20 18:59N 45°52' W 084°44'4 7.6
2018-Jul-20 18:30N 45°51' W 084°39'1 2.5
2018-Jul-20 18:00N 45°51' W 084°37'1 2.9
2018-Jul-20 17:30N 45°51' W 084°39'2 4.4
2018-Jul-20 17:00N 45°51' W 084°42'0 0.0
2018-Jul-20 16:30N 45°51' W 084°42'0 0.0
2018-Jul-20 16:00N 45°51' W 084°42'1 1.6
2018-Jul-20 15:30N 45°51' W 084°41'3 5.5
2018-Jul-20 14:59N 45°51' W 084°37'0 0.0
2018-Jul-20 14:29N 45°51' W 084°37'0 0.0
2018-Jul-20 13:59N 45°51' W 084°37'3 5.1
2018-Jul-20 13:30N 45°51' W 084°41'1 2.3
2018-Jul-20 13:00N 45°51' W 084°42'1 1.6
2018-Jul-20 12:30N 45°51' W 084°41'3 5.6
2018-Jul-20 12:00N 45°51' W 084°37'0 0.0
2018-Jul-20 11:30N 45°51' W 084°37'2 4.2
2018-Jul-20 11:00N 45°51' W 084°40'1 2.9
2018-Jul-20 10:30N 45°51' W 084°42'0 0.0
2018-Jul-20 10:00N 45°51' W 084°42'0 0.0
2018-Jul-19 17:50N 45°51' W 084°42'3 8.1
2018-Jul-19 17:30N 45°51' W 084°38'1 1.8
2018-Jul-19 16:59N 45°51' W 084°37'2 5.0
2018-Jul-19 16:30N 45°51' W 084°40'1 2.5
2018-Jul-19 16:00N 45°51' W 084°42'0 0.0
2018-Jul-19 15:30N 45°51' W 084°42'0 0.0
2018-Jul-19 15:00N 45°51' W 084°42'2 4.7
2018-Jul-19 14:31N 45°51' W 084°39'1 1.4
2018-Jul-19 13:30N 45°51' W 084°37'4 7.7
2018-Jul-19 13:01N 45°51' W 084°42'0 0.0
2018-Jul-19 12:30N 45°51' W 084°42'1 2.7
2018-Jul-19 12:00N 45°51' W 084°40'2 4.4
2018-Jul-19 11:30N 45°51' W 084°37'0 0.9
2018-Jul-19 11:00N 45°51' W 084°37'3 6.1
2018-Jul-19 10:28N 45°51' W 084°42'1 3.1
2018-Jul-19 10:00N 45°52' W 084°44'0 0.0
2018-Jul-18 19:33N 45°52' W 084°44'0 2.2
2018-Jul-18 19:30N 45°52' W 084°44'1 2.8
2018-Jul-18 19:00N 45°51' W 084°42'3 6.6
2018-Jul-18 18:30N 45°51' W 084°38'1 1.0
2018-Jul-18 18:00N 45°51' W 084°37'2 4.3
2018-Jul-18 17:30N 45°51' W 084°40'1 0.1
2018-Jul-17 19:05N 45°51' W 084°42'0 1.6
2018-Jul-17 19:00N 45°51' W 084°42'4 6.8
2018-Jul-17 18:29N 45°51' W 084°37'1 2.2
2018-Jul-17 18:00N 45°51' W 084°38'3 5.3
2018-Jul-17 17:30N 45°51' W 084°42'1 2.3
2018-Jul-17 17:00N 45°51' W 084°41'2 4.9
2018-Jul-17 16:30N 45°51' W 084°37'1 1.2
2018-Jul-17 16:00N 45°51' W 084°38'3 6.2
2018-Jul-17 15:30N 45°51' W 084°42'0 0.0
2018-Jul-17 15:00N 45°51' W 084°42'2 4.6
2018-Jul-17 14:29N 45°51' W 084°39'1 1.3
2018-Jul-17 13:33N 45°51' W 084°37'1 8.1
2018-Jul-17 13:29N 45°51' W 084°38'3 1.9
2018-Jul-17 11:52N 45°51' W 084°42'2 1.5
2018-Jul-17 10:42N 45°51' W 084°40'1 0.1
2018-Jul-16 20:06N 45°51' W 084°41'1 7.8
2018-Jul-16 19:59N 45°51' W 084°40'2 2.8
2018-Jul-16 19:16N 45°51' W 084°37'0 0.6
2018-Jul-16 18:41N 45°51' W 084°37'2 8.6
2018-Jul-16 18:29N 45°51' W 084°39'1 0.9
2018-Jul-16 17:04N 45°51' W 084°41'1 8.1
2018-Jul-16 17:00N 45°51' W 084°40'2 1.3
2018-Jul-16 15:09N 45°51' W 084°37'0 0.0
2018-Jul-16 14:59N 45°51' W 084°37'4 1.7
2018-Jul-16 12:51N 45°51' W 084°42'3 8.0
2018-Jul-16 12:30N 45°51' W 084°38'1 1.7
2018-Jul-16 11:59N 45°51' W 084°37'0 0.0
2018-Jul-16 11:25N 45°51' W 084°37'3 0.1
2018-Jul-14 16:07N 45°51' W 084°42'1 8.2
2018-Jul-14 16:00N 45°51' W 084°41'3 1.4
2018-Jul-14 14:08N 45°51' W 084°37'3 2.5
2018-Jul-14 12:58N 45°51' W 084°41'3 2.6
2018-Jul-14 11:55N 45°51' W 084°37'1 0.0
2018-Jul-13 18:19N 45°51' W 084°38'1 1.2
2018-Jul-13 17:15N 45°51' W 084°40'1 0.3
2018-Jul-13 12:13N 45°51' W 084°42'0 0.0
2018-Jul-12 18:39N 45°51' W 084°42'1 8.0
2018-Jul-12 18:29N 45°51' W 084°40'2 2.2
2018-Jul-12 17:24N 45°51' W 084°37'4 2.1
2018-Jul-12 15:42N 45°51' W 084°42'2 7.9
2018-Jul-12 15:27N 45°51' W 084°39'1 3.1
2018-Jul-12 14:59N 45°51' W 084°37'0 0.4
2018-Jul-12 14:29N 45°51' W 084°37'4 2.8
2018-Jul-12 13:10N 45°51' W 084°42'1 8.0
2018-Jul-12 13:00N 45°51' W 084°40'2 4.2
2018-Jul-12 12:30N 45°51' W 084°37'0 0.0
2018-Jul-12 11:59N 45°51' W 084°37'0 0.0
2018-Jul-12 11:29N 45°51' W 084°37'0 0.0
2018-Jul-12 11:00N 45°51' W 084°37'3 5.9
2018-Jul-12 10:30N 45°51' W 084°41'0 0.0
2018-Jul-11 18:22N 45°51' W 084°41'3 2.4
2018-Jul-11 17:10N 45°51' W 084°37'1 8.3
2018-Jul-11 17:00N 45°51' W 084°39'  
Track history (hours):
 
Tides and Currents Weather Stations Pressure Air Temp Water Temp Dewpoint Dewpoint Depression Visibility Wind Speed Wind Dir Waves Ship Positions

Corsair

Owner: MIFC SHIPPING LLC, Saint Ignace, MI. More information available from US FCC via Universal Licensing System and Coast Guard Vessel Documentation Center.

Last reported at 2018-Jul-21 16:50 UTC. Time now 2018-Jul-22 16:23 UTC.
Position N 45°52' W 084°44'.

Length 28 m; draft 2.1 m.

Type: Cargo ship. MMSI: 367706320.

Date/timePositionNaut miles runAvg speedWind from/ knotsBaromVisibWave heightAir tempDewpointWater temp
2018-Jul-21 16:50N 45°52' W 084°44'1 4.2
2018-Jul-21 16:30N 45°51' W 084°42'1 1.5
2018-Jul-21 16:01N 45°51' W 084°41'3 5.5
2018-Jul-21 15:29N 45°51' W 084°37'0 0.0
2018-Jul-21 15:00N 45°51' W 084°37'0 0.0
2018-Jul-21 14:30N 45°51' W 084°37'4 3.6
2018-Jul-21 13:30N 45°51' W 084°42'0 0.0
2018-Jul-21 13:00N 45°51' W 084°42'3 6.8
2018-Jul-21 12:31N 45°51' W 084°37'0 0.8
2018-Jul-21 12:00N 45°51' W 084°37'1 2.0
2018-Jul-21 11:30N 45°51' W 084°38'3 5.2
2018-Jul-21 11:00N 45°51' W 084°42'0 0.0
2018-Jul-21 10:30N 45°51' W 084°42'0 0.0
2018-Jul-21 10:00N 45°51' W 084°42'1 0.1
2018-Jul-20 18:59N 45°52' W 084°44'4 7.6
2018-Jul-20 18:30N 45°51' W 084°39'1 2.5
2018-Jul-20 18:00N 45°51' W 084°37'1 2.9
2018-Jul-20 17:30N 45°51' W 084°39'2 4.4
2018-Jul-20 17:00N 45°51' W 084°42'0 0.0
2018-Jul-20 16:30N 45°51' W 084°42'0 0.0
2018-Jul-20 16:00N 45°51' W 084°42'1 1.6
2018-Jul-20 15:30N 45°51' W 084°41'3 5.5
2018-Jul-20 14:59N 45°51' W 084°37'0 0.0
2018-Jul-20 14:29N 45°51' W 084°37'0 0.0
2018-Jul-20 13:59N 45°51' W 084°37'3 5.1
2018-Jul-20 13:30N 45°51' W 084°41'1 2.3
2018-Jul-20 13:00N 45°51' W 084°42'1 1.6
2018-Jul-20 12:30N 45°51' W 084°41'3 5.6
2018-Jul-20 12:00N 45°51' W 084°37'0 0.0
2018-Jul-20 11:30N 45°51' W 084°37'2 4.2
2018-Jul-20 11:00N 45°51' W 084°40'1 2.9
2018-Jul-20 10:30N 45°51' W 084°42'0 0.0
2018-Jul-20 10:00N 45°51' W 084°42'0 0.0
2018-Jul-19 17:50N 45°51' W 084°42'3 8.1
2018-Jul-19 17:30N 45°51' W 084°38'1 1.8
2018-Jul-19 16:59N 45°51' W 084°37'2 5.0
2018-Jul-19 16:30N 45°51' W 084°40'1 2.5
2018-Jul-19 16:00N 45°51' W 084°42'0 0.0
2018-Jul-19 15:30N 45°51' W 084°42'0 0.0
2018-Jul-19 15:00N 45°51' W 084°42'2 4.7
2018-Jul-19 14:31N 45°51' W 084°39'1 1.4
2018-Jul-19 13:30N 45°51' W 084°37'4 7.7
2018-Jul-19 13:01N 45°51' W 084°42'0 0.0
2018-Jul-19 12:30N 45°51' W 084°42'1 2.7
2018-Jul-19 12:00N 45°51' W 084°40'2 4.4
2018-Jul-19 11:30N 45°51' W 084°37'0 0.9
2018-Jul-19 11:00N 45°51' W 084°37'3 6.1
2018-Jul-19 10:28N 45°51' W 084°42'1 3.1
2018-Jul-19 10:00N 45°52' W 084°44'0 0.0
2018-Jul-18 19:33N 45°52' W 084°44'0 2.2
2018-Jul-18 19:30N 45°52' W 084°44'1 2.8
2018-Jul-18 19:00N 45°51' W 084°42'3 6.6
2018-Jul-18 18:30N 45°51' W 084°38'1 1.0
2018-Jul-18 18:00N 45°51' W 084°37'2 4.3
2018-Jul-18 17:30N 45°51' W 084°40'1 0.1
2018-Jul-17 19:05N 45°51' W 084°42'0 1.6
2018-Jul-17 19:00N 45°51' W 084°42'4 6.8
2018-Jul-17 18:29N 45°51' W 084°37'1 2.2
2018-Jul-17 18:00N 45°51' W 084°38'3 5.3
2018-Jul-17 17:30N 45°51' W 084°42'1 2.3
2018-Jul-17 17:00N 45°51' W 084°41'2 4.9
2018-Jul-17 16:30N 45°51' W 084°37'1 1.2
2018-Jul-17 16:00N 45°51' W 084°38'3 6.2
2018-Jul-17 15:30N 45°51' W 084°42'0 0.0
2018-Jul-17 15:00N 45°51' W 084°42'2 4.6
2018-Jul-17 14:29N 45°51' W 084°39'1 1.3
2018-Jul-17 13:33N 45°51' W 084°37'1 8.1
2018-Jul-17 13:29N 45°51' W 084°38'3 1.9
2018-Jul-17 11:52N 45°51' W 084°42'2 1.5
2018-Jul-17 10:42N 45°51' W 084°40'1 0.1
2018-Jul-16 20:06N 45°51' W 084°41'1 7.8
2018-Jul-16 19:59N 45°51' W 084°40'2 2.8
2018-Jul-16 19:16N 45°51' W 084°37'0 0.6
2018-Jul-16 18:41N 45°51' W 084°37'2 8.6
2018-Jul-16 18:29N 45°51' W 084°39'1 0.9
2018-Jul-16 17:04N 45°51' W 084°41'1 8.1
2018-Jul-16 17:00N 45°51' W 084°40'2 1.3
2018-Jul-16 15:09N 45°51' W 084°37'0 0.0
2018-Jul-16 14:59N 45°51' W 084°37'4 1.7
2018-Jul-16 12:51N 45°51' W 084°42'3 8.0
2018-Jul-16 12:30N 45°51' W 084°38'1 1.7
2018-Jul-16 11:59N 45°51' W 084°37'0 0.0
2018-Jul-16 11:25N 45°51' W 084°37'3 0.1
2018-Jul-14 16:07N 45°51' W 084°42'1 8.2
2018-Jul-14 16:00N 45°51' W 084°41'3 1.4
2018-Jul-14 14:08N 45°51' W 084°37'3 2.5
2018-Jul-14 12:58N 45°51' W 084°41'3 2.6
2018-Jul-14 11:55N 45°51' W 084°37'1 0.0
2018-Jul-13 18:19N 45°51' W 084°38'1 1.2
2018-Jul-13 17:15N 45°51' W 084°40'1 0.3
2018-Jul-13 12:13N 45°51' W 084°42'0 0.0
2018-Jul-12 18:39N 45°51' W 084°42'1 8.0
2018-Jul-12 18:29N 45°51' W 084°40'2 2.2
2018-Jul-12 17:24N 45°51' W 084°37'4 2.1
2018-Jul-12 15:42N 45°51' W 084°42'2 7.9
2018-Jul-12 15:27N 45°51' W 084°39'1 3.1
2018-Jul-12 14:59N 45°51' W 084°37'0 0.4
2018-Jul-12 14:29N 45°51' W 084°37'4 2.8
2018-Jul-12 13:10N 45°51' W 084°42'1 8.0
2018-Jul-12 13:00N 45°51' W 084°40'2 4.2
2018-Jul-12 12:30N 45°51' W 084°37'0 0.0
2018-Jul-12 11:59N 45°51' W 084°37'0 0.0
2018-Jul-12 11:29N 45°51' W 084°37'0 0.0
2018-Jul-12 11:00N 45°51' W 084°37'3 5.9
2018-Jul-12 10:30N 45°51' W 084°41'0 0.0
2018-Jul-11 18:22N 45°51' W 084°41'3 2.4
2018-Jul-11 17:10N 45°51' W 084°37'1 8.3
2018-Jul-11 17:00N 45°51' W 084°39'  

Dump ship's entire track history